sensor_id;sensor_type;location;lat;lon;timestamp;pressure;altitude;pressure_sealevel;temperature;humidity
23016;BME280;11674;52.428;13.584;2023-07-13T00:03:42;100951.34;;;22.84;43.01
23016;BME280;11674;52.428;13.584;2023-07-13T00:08:49;100953.34;;;22.83;43.49
23016;BME280;11674;52.428;13.584;2023-07-13T00:13:56;100956.53;;;22.82;43.48
23016;BME280;11674;52.428;13.584;2023-07-13T00:19:03;100959.19;;;22.75;43.58
23016;BME280;11674;52.428;13.584;2023-07-13T00:24:14;100958.84;;;22.61;43.91
23016;BME280;11674;52.428;13.584;2023-07-13T00:29:22;100966.22;;;22.50;43.94
23016;BME280;11674;52.428;13.584;2023-07-13T00:34:29;100975.34;;;22.43;44.06
23016;BME280;11674;52.428;13.584;2023-07-13T00:39:36;100963.03;;;22.36;44.53
23016;BME280;11674;52.428;13.584;2023-07-13T00:45:07;100964.84;;;22.28;44.60
23016;BME280;11674;52.428;13.584;2023-07-13T00:50:32;100961.19;;;22.28;44.81
23016;BME280;11674;52.428;13.584;2023-07-13T00:55:39;100970.75;;;22.23;44.64
23016;BME280;11674;52.428;13.584;2023-07-13T01:00:50;100976.78;;;22.22;45.12
23016;BME280;11674;52.428;13.584;2023-07-13T01:05:57;100980.69;;;22.17;45.23
23016;BME280;11674;52.428;13.584;2023-07-13T01:11:04;100981.41;;;22.14;44.96
23016;BME280;11674;52.428;13.584;2023-07-13T01:16:16;100986.06;;;22.07;45.49
23016;BME280;11674;52.428;13.584;2023-07-13T01:21:27;100981.13;;;22.04;45.13
23016;BME280;11674;52.428;13.584;2023-07-13T01:26:35;100979.03;;;22.01;45.40
23016;BME280;11674;52.428;13.584;2023-07-13T01:31:42;100975.66;;;21.95;45.66
23016;BME280;11674;52.428;13.584;2023-07-13T01:36:49;100978.38;;;21.92;45.88
23016;BME280;11674;52.428;13.584;2023-07-13T01:41:56;100978.25;;;21.88;46.11
23016;BME280;11674;52.428;13.584;2023-07-13T01:47:03;100976.09;;;21.82;46.14
23016;BME280;11674;52.428;13.584;2023-07-13T01:52:10;100967.38;;;21.75;46.34
23016;BME280;11674;52.428;13.584;2023-07-13T01:57:17;100972.34;;;21.66;46.78
23016;BME280;11674;52.428;13.584;2023-07-13T02:02:24;100969.31;;;21.59;47.53
23016;BME280;11674;52.428;13.584;2023-07-13T02:07:31;100972.28;;;21.50;47.40
23016;BME280;11674;52.428;13.584;2023-07-13T02:12:38;100979.16;;;21.37;47.59
23016;BME280;11674;52.428;13.584;2023-07-13T02:22:59;100965.72;;;20.95;48.58
23016;BME280;11674;52.428;13.584;2023-07-13T02:28:06;100959.97;;;20.91;48.60
23016;BME280;11674;52.428;13.584;2023-07-13T02:33:13;100954.53;;;20.86;48.62
23016;BME280;11674;52.428;13.584;2023-07-13T02:38:22;100959.94;;;20.79;48.67
23016;BME280;11674;52.428;13.584;2023-07-13T02:43:29;100973.00;;;20.72;48.97
23016;BME280;11674;52.428;13.584;2023-07-13T02:48:38;100981.00;;;20.70;48.99
23016;BME280;11674;52.428;13.584;2023-07-13T02:53:47;100990.97;;;20.55;49.30
23016;BME280;11674;52.428;13.584;2023-07-13T02:58:54;100987.06;;;20.36;49.79
23016;BME280;11674;52.428;13.584;2023-07-13T03:04:01;100999.84;;;20.21;50.38
23016;BME280;11674;52.428;13.584;2023-07-13T03:09:09;101003.94;;;20.12;50.04
23016;BME280;11674;52.428;13.584;2023-07-13T03:14:22;100993.72;;;20.07;50.68
23016;BME280;11674;52.428;13.584;2023-07-13T03:19:30;100998.72;;;20.02;50.48
23016;BME280;11674;52.428;13.584;2023-07-13T03:24:38;100997.97;;;19.93;51.30
23016;BME280;11674;52.428;13.584;2023-07-13T03:29:46;101014.28;;;19.87;51.33
23016;BME280;11674;52.428;13.584;2023-07-13T03:34:54;101006.78;;;19.91;51.59
23016;BME280;11674;52.428;13.584;2023-07-13T03:40:01;101014.06;;;19.92;51.29
23016;BME280;11674;52.428;13.584;2023-07-13T03:45:08;101008.22;;;19.97;51.20
23016;BME280;11674;52.428;13.584;2023-07-13T03:50:15;101022.91;;;20.03;51.29
23016;BME280;11674;52.428;13.584;2023-07-13T03:55:22;101015.13;;;20.20;51.79
23016;BME280;11674;52.428;13.584;2023-07-13T04:00:29;101025.03;;;20.50;51.62
23016;BME280;11674;52.428;13.584;2023-07-13T04:05:36;101018.75;;;20.89;51.37
23016;BME280;11674;52.428;13.584;2023-07-13T04:10:46;101030.34;;;21.24;51.38
23016;BME280;11674;52.428;13.584;2023-07-13T04:15:53;101037.75;;;21.80;51.19
23016;BME280;11674;52.428;13.584;2023-07-13T04:21:01;101040.56;;;22.35;50.45
23016;BME280;11674;52.428;13.584;2023-07-13T04:26:08;101031.28;;;22.81;50.08
23016;BME280;11674;52.428;13.584;2023-07-13T04:31:15;101033.25;;;23.11;49.77
23016;BME280;11674;52.428;13.584;2023-07-13T04:36:22;101035.13;;;23.54;49.30
23016;BME280;11674;52.428;13.584;2023-07-13T04:41:29;101045.72;;;23.76;49.18
23016;BME280;11674;52.428;13.584;2023-07-13T04:46:36;101046.34;;;24.04;48.70
23016;BME280;11674;52.428;13.584;2023-07-13T04:51:43;101048.50;;;24.52;48.15
23016;BME280;11674;52.428;13.584;2023-07-13T04:56:50;101057.81;;;24.30;47.89
23016;BME280;11674;52.428;13.584;2023-07-13T05:01:57;101061.13;;;23.94;47.87
23016;BME280;11674;52.428;13.584;2023-07-13T05:07:05;101061.47;;;23.73;48.05
23016;BME280;11674;52.428;13.584;2023-07-13T05:12:12;101059.69;;;23.31;47.87
23016;BME280;11674;52.428;13.584;2023-07-13T05:17:19;101064.91;;;22.82;48.53
23016;BME280;11674;52.428;13.584;2023-07-13T05:22:26;101067.25;;;22.65;48.47
23016;BME280;11674;52.428;13.584;2023-07-13T05:27:34;101080.00;;;22.43;48.87
23016;BME280;11674;52.428;13.584;2023-07-13T05:32:41;101073.50;;;22.43;48.80
23016;BME280;11674;52.428;13.584;2023-07-13T05:37:48;101084.13;;;22.46;48.81
23016;BME280;11674;52.428;13.584;2023-07-13T05:42:55;101082.47;;;22.45;48.56
23016;BME280;11674;52.428;13.584;2023-07-13T05:48:02;101095.06;;;22.47;48.67
23016;BME280;11674;52.428;13.584;2023-07-13T05:53:09;101082.78;;;22.55;48.71
23016;BME280;11674;52.428;13.584;2023-07-13T05:58:17;101070.91;;;22.65;48.64
23016;BME280;11674;52.428;13.584;2023-07-13T06:03:24;101084.06;;;22.73;48.77
23016;BME280;11674;52.428;13.584;2023-07-13T06:08:31;101087.44;;;22.79;48.45
23016;BME280;11674;52.428;13.584;2023-07-13T06:13:38;101084.34;;;22.84;48.56
23016;BME280;11674;52.428;13.584;2023-07-13T06:18:45;101075.75;;;22.96;48.64
23016;BME280;11674;52.428;13.584;2023-07-13T06:23:52;101082.59;;;23.10;48.48
23016;BME280;11674;52.428;13.584;2023-07-13T06:28:59;101083.16;;;23.16;48.01
23016;BME280;11674;52.428;13.584;2023-07-13T06:34:06;101076.84;;;23.07;47.96
23016;BME280;11674;52.428;13.584;2023-07-13T06:39:13;101081.50;;;23.15;47.84
23016;BME280;11674;52.428;13.584;2023-07-13T06:44:20;101079.22;;;23.20;47.76
23016;BME280;11674;52.428;13.584;2023-07-13T06:49:27;101085.06;;;23.12;47.40
23016;BME280;11674;52.428;13.584;2023-07-13T06:54:34;101095.03;;;23.21;47.25
23016;BME280;11674;52.428;13.584;2023-07-13T06:59:41;101087.91;;;23.27;47.04
23016;BME280;11674;52.428;13.584;2023-07-13T07:04:48;101080.03;;;23.36;46.76
23016;BME280;11674;52.428;13.584;2023-07-13T07:09:55;101085.50;;;23.45;46.81
23016;BME280;11674;52.428;13.584;2023-07-13T07:15:02;101086.28;;;23.61;46.43
23016;BME280;11674;52.428;13.584;2023-07-13T07:20:10;101094.41;;;23.62;45.80
23016;BME280;11674;52.428;13.584;2023-07-13T07:25:17;101099.50;;;23.72;46.17
23016;BME280;11674;52.428;13.584;2023-07-13T07:30:24;101086.75;;;23.82;45.72
23016;BME280;11674;52.428;13.584;2023-07-13T07:35:31;101101.72;;;23.98;45.35
23016;BME280;11674;52.428;13.584;2023-07-13T07:40:39;101098.81;;;24.13;45.15
23016;BME280;11674;52.428;13.584;2023-07-13T07:45:46;101099.63;;;24.14;44.93
23016;BME280;11674;52.428;13.584;2023-07-13T07:50:53;101102.16;;;24.19;44.73
23016;BME280;11674;52.428;13.584;2023-07-13T07:56:00;101098.13;;;24.39;44.62
23016;BME280;11674;52.428;13.584;2023-07-13T08:01:07;101094.69;;;24.49;43.92
23016;BME280;11674;52.428;13.584;2023-07-13T08:06:14;101095.44;;;24.46;43.93
23016;BME280;11674;52.428;13.584;2023-07-13T08:11:22;101093.91;;;24.71;43.46
23016;BME280;11674;52.428;13.584;2023-07-13T08:16:29;101092.47;;;25.03;43.30
23016;BME280;11674;52.428;13.584;2023-07-13T08:21:36;101089.09;;;25.42;42.90
23016;BME280;11674;52.428;13.584;2023-07-13T08:26:44;101100.38;;;25.65;42.55
23016;BME280;11674;52.428;13.584;2023-07-13T08:31:51;101098.19;;;25.81;41.51
23016;BME280;11674;52.428;13.584;2023-07-13T08:36:58;101100.69;;;25.86;40.67
23016;BME280;11674;52.428;13.584;2023-07-13T08:42:12;101096.88;;;25.75;40.99
23016;BME280;11674;52.428;13.584;2023-07-13T08:47:23;101095.16;;;25.67;40.99
23016;BME280;11674;52.428;13.584;2023-07-13T08:52:32;101105.63;;;25.89;40.67
23016;BME280;11674;52.428;13.584;2023-07-13T08:57:41;101111.78;;;25.91;40.59
23016;BME280;11674;52.428;13.584;2023-07-13T09:02:57;101113.84;;;25.94;40.32
23016;BME280;11674;52.428;13.584;2023-07-13T09:18:50;101111.94;;;26.01;39.35
23016;BME280;11674;52.428;13.584;2023-07-13T09:24:22;101112.72;;;26.02;39.29
23016;BME280;11674;52.428;13.584;2023-07-13T09:29:34;101107.25;;;25.90;39.29
23016;BME280;11674;52.428;13.584;2023-07-13T09:34:40;101099.63;;;25.94;39.16
23016;BME280;11674;52.428;13.584;2023-07-13T09:39:49;101106.06;;;25.91;38.67
23016;BME280;11674;52.428;13.584;2023-07-13T09:44:59;101114.41;;;26.03;38.17
23016;BME280;11674;52.428;13.584;2023-07-13T09:50:12;101114.91;;;26.12;37.64
23016;BME280;11674;52.428;13.584;2023-07-13T09:55:38;101111.13;;;26.04;37.44
23016;BME280;11674;52.428;13.584;2023-07-13T10:00:58;101111.38;;;25.92;37.01
23016;BME280;11674;52.428;13.584;2023-07-13T10:06:13;101124.31;;;25.90;37.14
23016;BME280;11674;52.428;13.584;2023-07-13T10:11:29;101130.28;;;26.07;36.98
23016;BME280;11674;52.428;13.584;2023-07-13T10:16:36;101132.09;;;26.19;37.06
23016;BME280;11674;52.428;13.584;2023-07-13T10:21:52;101122.91;;;26.32;36.91
23016;BME280;11674;52.428;13.584;2023-07-13T10:32:12;101130.00;;;26.49;36.70
23016;BME280;11674;52.428;13.584;2023-07-13T10:37:23;101133.03;;;26.59;36.87
23016;BME280;11674;52.428;13.584;2023-07-13T10:42:40;101140.47;;;26.71;37.00
23016;BME280;11674;52.428;13.584;2023-07-13T10:47:52;101135.69;;;26.49;36.71
23016;BME280;11674;52.428;13.584;2023-07-13T10:53:18;101130.97;;;26.60;37.01
23016;BME280;11674;52.428;13.584;2023-07-13T11:04:02;101104.41;;;27.29;36.07
23016;BME280;11674;52.428;13.584;2023-07-13T11:14:34;101123.94;;;27.23;35.62
23016;BME280;11674;52.428;13.584;2023-07-13T11:19:41;101119.53;;;27.33;34.76
23016;BME280;11674;52.428;13.584;2023-07-13T11:24:57;101115.44;;;27.30;34.72
23016;BME280;11674;52.428;13.584;2023-07-13T11:35:29;101086.13;;;27.91;33.67
23016;BME280;11674;52.428;13.584;2023-07-13T11:40:37;101103.31;;;28.05;33.03
23016;BME280;11674;52.428;13.584;2023-07-13T11:45:44;101091.94;;;28.08;32.75
23016;BME280;11674;52.428;13.584;2023-07-13T11:51:04;101090.38;;;28.28;31.91
23016;BME280;11674;52.428;13.584;2023-07-13T11:56:11;101091.09;;;28.08;31.39
23016;BME280;11674;52.428;13.584;2023-07-13T12:01:25;101093.66;;;28.30;30.79
23016;BME280;11674;52.428;13.584;2023-07-13T12:06:34;101096.91;;;28.32;30.92
23016;BME280;11674;52.428;13.584;2023-07-13T12:11:49;101089.34;;;28.78;30.75
23016;BME280;11674;52.428;13.584;2023-07-13T12:16:56;101084.09;;;29.19;30.26
23016;BME280;11674;52.428;13.584;2023-07-13T12:22:03;101076.72;;;29.11;30.38
23016;BME280;11674;52.428;13.584;2023-07-13T12:32:26;101086.94;;;29.19;30.64
23016;BME280;11674;52.428;13.584;2023-07-13T12:37:34;101082.84;;;29.20;30.37
23016;BME280;11674;52.428;13.584;2023-07-13T12:42:41;101081.59;;;29.42;30.05
23016;BME280;11674;52.428;13.584;2023-07-13T12:47:53;101059.94;;;29.44;29.91
23016;BME280;11674;52.428;13.584;2023-07-13T12:53:03;101058.34;;;29.36;29.63
23016;BME280;11674;52.428;13.584;2023-07-13T12:58:18;101067.75;;;29.30;29.47
23016;BME280;11674;52.428;13.584;2023-07-13T13:03:28;101081.59;;;29.70;28.74
23016;BME280;11674;52.428;13.584;2023-07-13T13:08:36;101071.38;;;29.65;28.48
23016;BME280;11674;52.428;13.584;2023-07-13T13:13:44;101075.06;;;29.34;28.65
23016;BME280;11674;52.428;13.584;2023-07-13T13:18:53;101077.47;;;28.73;29.17
23016;BME280;11674;52.428;13.584;2023-07-13T13:24:00;101080.25;;;28.41;30.06
23016;BME280;11674;52.428;13.584;2023-07-13T13:29:15;101066.06;;;28.83;29.86
23016;BME280;11674;52.428;13.584;2023-07-13T13:34:23;101079.56;;;29.07;29.99
23016;BME280;11674;52.428;13.584;2023-07-13T13:39:37;101079.19;;;29.26;29.52
23016;BME280;11674;52.428;13.584;2023-07-13T13:44:44;101071.00;;;29.63;29.34
23016;BME280;11674;52.428;13.584;2023-07-13T13:49:51;101084.81;;;29.82;28.93
23016;BME280;11674;52.428;13.584;2023-07-13T13:54:58;101088.13;;;29.74;28.87
23016;BME280;11674;52.428;13.584;2023-07-13T14:00:06;101091.00;;;29.35;28.84
23016;BME280;11674;52.428;13.584;2023-07-13T14:05:15;101080.38;;;28.97;29.41
23016;BME280;11674;52.428;13.584;2023-07-13T14:10:23;101074.28;;;29.16;29.15
23016;BME280;11674;52.428;13.584;2023-07-13T14:15:30;101083.25;;;29.53;28.73
23016;BME280;11674;52.428;13.584;2023-07-13T14:20:37;101091.03;;;29.42;28.74
23016;BME280;11674;52.428;13.584;2023-07-13T14:25:45;101090.56;;;28.84;28.66
23016;BME280;11674;52.428;13.584;2023-07-13T14:30:53;101104.41;;;28.68;29.21
23016;BME280;11674;52.428;13.584;2023-07-13T14:36:02;101088.19;;;29.18;29.47
23016;BME280;11674;52.428;13.584;2023-07-13T14:41:09;101091.81;;;28.97;28.66
23016;BME280;11674;52.428;13.584;2023-07-13T14:46:30;101096.22;;;28.56;29.05
23016;BME280;11674;52.428;13.584;2023-07-13T14:51:37;101096.91;;;28.32;29.34
23016;BME280;11674;52.428;13.584;2023-07-13T14:56:44;101100.25;;;28.41;29.61
23016;BME280;11674;52.428;13.584;2023-07-13T15:01:51;101099.03;;;28.53;29.63
23016;BME280;11674;52.428;13.584;2023-07-13T15:07:01;101088.97;;;29.01;29.58
23016;BME280;11674;52.428;13.584;2023-07-13T15:12:08;101090.59;;;29.33;29.23
23016;BME280;11674;52.428;13.584;2023-07-13T15:22:31;101080.00;;;29.09;28.99
23016;BME280;11674;52.428;13.584;2023-07-13T15:27:38;101082.03;;;29.33;28.93
23016;BME280;11674;52.428;13.584;2023-07-13T15:32:46;101090.22;;;29.35;28.38
23016;BME280;11674;52.428;13.584;2023-07-13T15:37:54;101083.28;;;29.29;27.51
23016;BME280;11674;52.428;13.584;2023-07-13T15:43:00;101082.84;;;29.20;27.36
23016;BME280;11674;52.428;13.584;2023-07-13T15:48:24;101071.00;;;29.21;27.72
23016;BME280;11674;52.428;13.584;2023-07-13T15:53:33;101088.56;;;29.23;27.77
23016;BME280;11674;52.428;13.584;2023-07-13T15:58:40;101079.97;;;29.27;27.84
23016;BME280;11674;52.428;13.584;2023-07-13T16:03:48;101080.38;;;29.22;27.89
23016;BME280;11674;52.428;13.584;2023-07-13T16:08:54;101094.69;;;29.08;27.43
23016;BME280;11674;52.428;13.584;2023-07-13T16:14:01;101083.28;;;29.04;27.39
23016;BME280;11674;52.428;13.584;2023-07-13T16:19:09;101091.41;;;28.99;27.56
23016;BME280;11674;52.428;13.584;2023-07-13T16:24:20;101079.19;;;29.02;27.85
23016;BME280;11674;52.428;13.584;2023-07-13T16:29:29;101084.06;;;29.08;27.98
23016;BME280;11674;52.428;13.584;2023-07-13T16:34:38;101086.94;;;28.98;27.82
23016;BME280;11674;52.428;13.584;2023-07-13T16:39:48;101085.31;;;29.04;27.92
23016;BME280;11674;52.428;13.584;2023-07-13T16:44:55;101091.44;;;29.23;27.91
23016;BME280;11674;52.428;13.584;2023-07-13T16:50:04;101091.78;;;28.94;26.86
23016;BME280;11674;52.428;13.584;2023-07-13T16:55:17;101099.13;;;28.81;27.14
23016;BME280;11674;52.428;13.584;2023-07-13T17:00:26;101102.75;;;28.57;27.64
23016;BME280;11674;52.428;13.584;2023-07-13T17:05:39;101115.94;;;28.00;27.73
23016;BME280;11674;52.428;13.584;2023-07-13T17:10:47;101121.47;;;27.72;27.96
23016;BME280;11674;52.428;13.584;2023-07-13T17:15:55;101131.44;;;27.45;28.12
23016;BME280;11674;52.428;13.584;2023-07-13T17:21:05;101133.38;;;27.31;28.28
23016;BME280;11674;52.428;13.584;2023-07-13T17:26:11;101138.16;;;27.20;28.80
23016;BME280;11674;52.428;13.584;2023-07-13T17:31:25;101181.38;;;26.89;30.08
23016;BME280;11674;52.428;13.584;2023-07-13T17:36:35;101195.94;;;25.69;32.78
23016;BME280;11674;52.428;13.584;2023-07-13T17:41:46;101236.00;;;24.78;33.91
23016;BME280;11674;52.428;13.584;2023-07-13T17:46:52;101249.31;;;24.05;35.49
23016;BME280;11674;52.428;13.584;2023-07-13T17:52:00;101252.38;;;23.50;37.40
23016;BME280;11674;52.428;13.584;2023-07-13T17:57:06;101273.34;;;23.18;38.00
23016;BME280;11674;52.428;13.584;2023-07-13T18:02:18;101285.22;;;22.96;39.28
23016;BME280;11674;52.428;13.584;2023-07-13T18:07:26;101284.34;;;22.80;39.50
23016;BME280;11674;52.428;13.584;2023-07-13T18:12:33;101282.88;;;22.58;40.27
23016;BME280;11674;52.428;13.584;2023-07-13T18:17:46;101288.13;;;22.44;40.69
23016;BME280;11674;52.428;13.584;2023-07-13T18:22:53;101287.28;;;22.44;40.86
23016;BME280;11674;52.428;13.584;2023-07-13T18:28:00;101278.94;;;22.23;41.77
23016;BME280;11674;52.428;13.584;2023-07-13T18:33:29;101267.91;;;22.06;42.85
23016;BME280;11674;52.428;13.584;2023-07-13T18:38:37;101273.56;;;22.06;42.72
23016;BME280;11674;52.428;13.584;2023-07-13T18:43:45;101285.66;;;22.07;43.04
23016;BME280;11674;52.428;13.584;2023-07-13T18:48:52;101290.63;;;22.10;43.31
23016;BME280;11674;52.428;13.584;2023-07-13T18:53:58;101300.84;;;22.26;42.92
23016;BME280;11674;52.428;13.584;2023-07-13T18:59:05;101293.41;;;22.34;42.80
23016;BME280;11674;52.428;13.584;2023-07-13T19:04:30;101293.09;;;22.11;43.82
23016;BME280;11674;52.428;13.584;2023-07-13T19:09:38;101298.50;;;22.04;43.34
23016;BME280;11674;52.428;13.584;2023-07-13T19:14:47;101309.72;;;22.01;43.68
23016;BME280;11674;52.428;13.584;2023-07-13T19:19:54;101308.41;;;21.98;43.72
23016;BME280;11674;52.428;13.584;2023-07-13T19:25:01;101311.72;;;22.00;43.92
23016;BME280;11674;52.428;13.584;2023-07-13T19:30:10;101325.38;;;21.98;43.77
23016;BME280;11674;52.428;13.584;2023-07-13T19:35:18;101329.16;;;22.02;43.95
23016;BME280;11674;52.428;13.584;2023-07-13T19:40:27;101338.69;;;21.98;44.12
23016;BME280;11674;52.428;13.584;2023-07-13T19:45:34;101345.03;;;21.95;43.86
23016;BME280;11674;52.428;13.584;2023-07-13T19:50:42;101358.34;;;21.94;44.05
23016;BME280;11674;52.428;13.584;2023-07-13T19:55:48;101374.81;;;21.92;43.88
23016;BME280;11674;52.428;13.584;2023-07-13T20:00:55;101364.25;;;21.89;43.80
23016;BME280;11674;52.428;13.584;2023-07-13T20:06:05;101374.94;;;21.84;44.27
23016;BME280;11674;52.428;13.584;2023-07-13T20:11:33;101384.69;;;21.74;44.36
23016;BME280;11674;52.428;13.584;2023-07-13T20:16:40;101386.75;;;21.65;44.41
23016;BME280;11674;52.428;13.584;2023-07-13T20:21:48;101393.09;;;21.62;44.87
23016;BME280;11674;52.428;13.584;2023-07-13T20:26:54;101397.88;;;21.70;44.68
23016;BME280;11674;52.428;13.584;2023-07-13T20:32:02;101407.44;;;21.78;44.80
23016;BME280;11674;52.428;13.584;2023-07-13T20:37:29;101414.63;;;21.87;45.04
23016;BME280;11674;52.428;13.584;2023-07-13T20:42:36;101418.41;;;21.91;44.68
23016;BME280;11674;52.428;13.584;2023-07-13T20:47:45;101423.84;;;21.96;44.64
23016;BME280;11674;52.428;13.584;2023-07-13T20:52:56;101425.34;;;21.94;44.92
23016;BME280;11674;52.428;13.584;2023-07-13T20:58:03;101425.22;;;21.90;44.98
23016;BME280;11674;52.428;13.584;2023-07-13T21:03:24;101424.63;;;21.97;44.65
23016;BME280;11674;52.428;13.584;2023-07-13T21:08:31;101427.25;;;22.02;44.86
23016;BME280;11674;52.428;13.584;2023-07-13T21:13:45;101425.72;;;22.04;44.72
23016;BME280;11674;52.428;13.584;2023-07-13T21:18:53;101422.88;;;22.04;44.35
23016;BME280;11674;52.428;13.584;2023-07-13T21:24:01;101434.78;;;21.98;44.45
23016;BME280;11674;52.428;13.584;2023-07-13T21:29:08;101449.84;;;21.90;44.69
23016;BME280;11674;52.428;13.584;2023-07-13T21:34:17;101439.56;;;21.73;45.24
23016;BME280;11674;52.428;13.584;2023-07-13T21:39:24;101439.41;;;21.70;45.11
23016;BME280;11674;52.428;13.584;2023-07-13T21:44:31;101439.13;;;21.63;45.60
23016;BME280;11674;52.428;13.584;2023-07-13T21:49:38;101442.34;;;21.41;45.94
23016;BME280;11674;52.428;13.584;2023-07-13T21:54:45;101443.22;;;21.33;46.31
23016;BME280;11674;52.428;13.584;2023-07-13T21:59:52;101439.69;;;21.24;46.59
23016;BME280;11674;52.428;13.584;2023-07-13T22:04:59;101430.53;;;21.06;46.71
23016;BME280;11674;52.428;13.584;2023-07-13T22:10:19;101449.38;;;20.94;47.16
23016;BME280;11674;52.428;13.584;2023-07-13T22:15:27;101438.97;;;20.86;47.25
23016;BME280;11674;52.428;13.584;2023-07-13T22:20:33;101450.97;;;20.74;47.48
23016;BME280;11674;52.428;13.584;2023-07-13T22:25:40;101453.72;;;20.62;48.39
23016;BME280;11674;52.428;13.584;2023-07-13T22:30:49;101445.97;;;20.51;48.33
23016;BME280;11674;52.428;13.584;2023-07-13T22:35:56;101448.84;;;20.42;48.60
23016;BME280;11674;52.428;13.584;2023-07-13T22:41:03;101447.91;;;20.30;49.06
23016;BME280;11674;52.428;13.584;2023-07-13T22:46:19;101442.13;;;20.26;49.45
23016;BME280;11674;52.428;13.584;2023-07-13T22:51:26;101445.47;;;20.20;49.33
23016;BME280;11674;52.428;13.584;2023-07-13T22:56:34;101437.19;;;20.15;49.65
23016;BME280;11674;52.428;13.584;2023-07-13T23:01:42;101442.34;;;20.13;50.00
23016;BME280;11674;52.428;13.584;2023-07-13T23:06:48;101446.19;;;20.08;50.08
23016;BME280;11674;52.428;13.584;2023-07-13T23:11:56;101446.34;;;20.03;50.35
23016;BME280;11674;52.428;13.584;2023-07-13T23:17:03;101450.28;;;20.02;50.37
23016;BME280;11674;52.428;13.584;2023-07-13T23:22:22;101448.69;;;19.93;50.80
23016;BME280;11674;52.428;13.584;2023-07-13T23:27:31;101455.84;;;19.82;50.96
23016;BME280;11674;52.428;13.584;2023-07-13T23:32:38;101472.59;;;19.70;51.82
23016;BME280;11674;52.428;13.584;2023-07-13T23:37:46;101469.47;;;19.63;51.86
23016;BME280;11674;52.428;13.584;2023-07-13T23:42:54;101467.47;;;19.55;52.44
23016;BME280;11674;52.428;13.584;2023-07-13T23:48:01;101480.56;;;19.51;52.17
23016;BME280;11674;52.428;13.584;2023-07-13T23:53:13;101466.34;;;19.47;52.60
23016;BME280;11674;52.428;13.584;2023-07-13T23:58:20;101465.19;;;19.40;52.58
